Aérodrome :
LOGIN :

S'inscrire | Disclaimer

   EN    FR    IT 

 










Légende :    VFR   VFR Marginal   IFR   IFR Intensif   IFR Très Intensif
Visi : 
Plafond : 
>= 8 km
>= 3000ft
5 à 8 km
1000 à 3000 ft
1500m à 5 km
500 à 1000 ft
800 à 1500m
200 à 500 ft
< 800m
< 200 ft
Symboles :   Orages  Brouillard  Fortes neiges  Fortes précipitations  Vent > 20 kt
SIGMETs :   Divers  Orages  Givrage  Turbulence  Onde Orograph.  Cendres Volcan.






- Altitude de l'aérodrome : 1585 ft
- Code IATA : SIR


LSGS - Sion

DERNIER METAR :
  • 041550Z 26007KT 9999 FEW020 BKN090 18/15 Q1012

METARs EXPIRÉS :
  • 041520Z 25005KT 210V280 9999 FEW020 BKN090 18/14 Q1012
  • 041450Z 22003KT 160V280 9999 FEW020 BKN090 18/14 Q1012
  • 041420Z VRB02KT 9999 -RA FEW015 SCT070 BKN100 18/14 Q1013
  • 041350Z VRB01KT 9999 FEW015 SCT080 BKN100 18/14 Q1013
  • 041320Z VRB01KT 9999 -RA FEW015 SCT080 OVC100 17/15 Q1013

TAF TAF LSGS
Valide du 04 à 15h jusqu'au 05 à 00h UTC


041425Z 0415/0424 VRB02KT 9999 SCT080 BKN100
PROB40
TEMPO 0415/0421 RA



MET'MAP, la Météo Aéronautique d'un coup d'oeil ! - Copyright ORBIFLY Décembre 2007 - Disclaimer

ORBIFLY MET'MAP TEAM :

Programmation & Développement : Alexandra Zaïnal
Sur une idée originale de : Baudouin d'Aumeries
Assistance à la programmation : Marc-Olivier Méhu
Soutien technique & logistique : Manuel Goepfert

Contact : metmap@orbifly.com




SOURCES & CREDITS :

   NOAA